Time;durP1;ratioP1;P1;durP2;ratioP2;P2;SDS_P1;SDS_P2;PMS_P1;PMS_P2;Temp;Humidity;BMP_temperature;BMP_pressure;BME280_temperature;BME280_humidity;BME280_pressure;Samples;Min_cycle;Max_cycle;Signal;HPM_P1;HPM_P2
2023/05/08 00:01:29;;;;;;;8.70;7.90;;;;;;;8.78;100.00;96741.97;7400680;19;20389;-76
2023/05/08 00:03:57;;;;;;;7.07;6.37;;;;;;;8.95;100.00;96746.53;7401335;19;20369;-76
2023/05/08 00:06:26;;;;;;;8.07;7.37;;;;;;;8.80;100.00;96740.59;7401609;19;20361;-76
2023/05/08 00:08:56;;;;;;;8.23;7.33;;;;;;;8.77;100.00;96745.69;7400284;19;21040;-76
2023/05/08 00:11:23;;;;;;;7.33;6.63;;;;;;;8.82;100.00;96743.72;7400531;19;20691;-76
2023/05/08 00:13:50;;;;;;;8.47;7.77;;;;;;;8.77;100.00;96764.94;7402946;19;20361;-76
2023/05/08 00:16:17;;;;;;;8.80;7.83;;;;;;;8.76;100.00;96754.69;7400302;19;20400;-76
2023/05/08 00:18:44;;;;;;;8.40;7.67;;;;;;;8.72;100.00;96766.94;7402193;19;20916;-76
2023/05/08 00:21:11;;;;;;;7.97;7.27;;;;;;;8.58;100.00;96741.44;7401410;19;20340;-76
2023/05/08 00:23:38;;;;;;;8.50;7.70;;;;;;;8.47;100.00;96732.22;7399978;19;20923;-76
2023/05/08 00:26:05;;;;;;;8.43;7.67;;;;;;;8.38;100.00;96741.16;7399827;19;20775;-76
2023/05/08 00:28:32;;;;;;;7.97;7.10;;;;;;;8.53;100.00;96740.78;7402544;19;20400;-76
2023/05/08 00:31:02;;;;;;;8.37;7.57;;;;;;;8.72;100.00;96770.34;7399942;19;20380;-76
2023/05/08 00:33:29;;;;;;;7.57;6.80;;;;;;;8.63;100.00;96752.94;7400931;19;20392;-76
2023/05/08 00:36:00;;;;;;;8.17;7.47;;;;;;;8.38;100.00;96746.44;7400298;19;20376;-76
2023/05/08 00:38:32;;;;;;;8.00;7.23;;;;;;;8.42;100.00;96766.63;7402253;19;20908;-76
2023/05/08 00:41:00;;;;;;;8.37;7.60;;;;;;;8.38;100.00;96767.50;7400700;19;20415;-76
2023/05/08 00:43:28;;;;;;;8.30;7.60;;;;;;;8.47;100.00;96771.75;7398892;19;20437;-76
2023/05/08 00:45:57;;;;;;;9.33;8.43;;;;;;;8.64;100.00;96773.72;7399712;19;20392;-76
2023/05/08 00:48:27;;;;;;;8.07;7.27;;;;;;;8.53;100.00;96752.09;7398011;19;20388;-76
2023/05/08 00:50:55;;;;;;;8.77;7.97;;;;;;;8.51;100.00;96762.16;7399907;19;20381;-76
2023/05/08 00:53:25;;;;;;;8.80;8.00;;;;;;;8.10;100.00;96717.56;7399908;19;20361;-76
2023/05/08 00:55:52;;;;;;;8.83;8.03;;;;;;;8.53;100.00;96767.13;7400098;19;20475;-76
2023/05/08 00:58:20;;;;;;;8.30;7.50;;;;;;;8.37;100.00;96771.22;7399940;19;20345;-76
2023/05/08 01:00:49;;;;;;;11.03;8.27;;;;;;;8.32;100.00;96752.88;7400025;19;20432;-76
2023/05/08 01:03:16;;;;;;;7.77;6.70;;;;;;;8.19;100.00;96746.59;7398361;19;20369;-76
2023/05/08 01:05:44;;;;;;;7.90;7.20;;;;;;;8.28;100.00;96740.31;7399891;19;20368;-76
2023/05/08 01:08:11;;;;;;;9.80;8.50;;;;;;;8.47;100.00;96761.22;7398268;19;20909;-76
2023/05/08 01:11:11;;;;;;;9.23;8.20;;;;;;;8.35;100.00;96768.88;7401356;19;20356;-76
2023/05/08 01:14:11;;;;;;;8.20;7.40;;;;;;;8.44;100.00;96771.59;7399637;19;20397;-76
2023/05/08 01:17:35;;;;;;;9.23;8.43;;;;;;;8.39;100.00;96763.78;7398997;19;20380;-76
2023/05/08 01:20:14;;;;;;;8.60;7.90;;;;;;;8.22;100.00;96759.16;7395200;19;20440;-76
2023/05/08 01:23:18;;;;;;;9.10;8.20;;;;;;;8.37;100.00;96777.25;7397781;19;20703;-76
2023/05/08 01:26:03;;;;;;;10.07;8.00;;;;;;;8.32;100.00;96776.59;7396875;19;20353;-76
2023/05/08 01:29:00;;;;;;;10.27;9.27;;;;;;;8.25;100.00;96780.41;7399415;19;20432;-76
2023/05/08 01:31:49;;;;;;;7.73;7.10;;;;;;;8.33;100.00;96775.50;7398867;19;20373;-76
2023/05/08 01:34:23;;;;;;;9.63;8.63;;;;;;;8.13;100.00;96760.94;7397836;19;20368;-76
2023/05/08 01:36:56;;;;;;;10.37;7.50;;;;;;;8.06;100.00;96753.47;7403642;19;20401;-76
2023/05/08 01:39:53;;;;;;;8.50;7.63;;;;;;;8.26;100.00;96786.47;7431704;19;20409;-76
2023/05/08 01:42:42;;;;;;;8.63;7.83;;;;;;;8.06;100.00;96769.28;7431576;19;20444;-76
2023/05/08 01:45:29;;;;;;;8.40;7.70;;;;;;;7.89;100.00;96763.88;7410769;19;20428;-77
2023/05/08 01:48:07;;;;;;;7.77;7.17;;;;;;;7.98;100.00;96780.50;7399043;19;20400;-76
2023/05/08 01:50:45;;;;;;;9.23;8.37;;;;;;;7.97;100.00;96768.44;7395892;19;20428;-76
2023/05/08 01:53:20;;;;;;;9.20;8.40;;;;;;;8.07;100.00;96780.59;7397707;19;20344;-76
2023/05/08 01:55:49;;;;;;;8.40;7.80;;;;;;;7.93;100.00;96804.34;7400172;19;20443;-76
2023/05/08 01:58:17;;;;;;;8.27;7.47;;;;;;;7.69;100.00;96771.13;7396686;19;20448;-76
2023/05/08 02:00:46;;;;;;;8.47;7.77;;;;;;;7.78;100.00;96809.94;7398260;19;20392;-76
2023/05/08 02:03:14;;;;;;;11.40;7.33;;;;;;;7.78;100.00;96802.03;7396414;19;20376;-76
2023/05/08 02:05:43;;;;;;;9.80;8.90;;;;;;;7.74;100.00;96795.78;7398250;19;20456;-76
2023/05/08 02:08:12;;;;;;;9.20;8.40;;;;;;;7.61;100.00;96787.66;7396563;19;20782;-76
2023/05/08 02:10:41;;;;;;;12.57;8.50;;;;;;;7.54;100.00;96778.59;7397904;19;20369;-76
2023/05/08 02:13:10;;;;;;;9.17;8.33;;;;;;;7.71;100.00;96805.84;7396201;19;20425;-76
2023/05/08 02:15:38;;;;;;;9.40;8.47;;;;;;;7.61;100.00;96800.00;7397735;19;20375;-76
2023/05/08 02:18:07;;;;;;;10.17;9.27;;;;;;;7.57;100.00;96812.19;7396726;19;20406;-76
2023/05/08 02:20:36;;;;;;;11.10;9.73;;;;;;;7.27;100.00;96785.44;7393220;19;20429;-76
2023/05/08 02:23:04;;;;;;;9.43;8.53;;;;;;;7.24;100.00;96772.09;7396251;19;20404;-76
2023/05/08 02:25:32;;;;;;;10.00;9.00;;;;;;;7.50;100.00;96785.50;7393077;19;20376;-76
2023/05/08 02:28:00;;;;;;;10.17;9.20;;;;;;;7.43;100.00;96800.91;7396385;19;20397;-76
2023/05/08 02:30:28;;;;;;;8.77;7.97;;;;;;;7.27;100.00;96792.53;7393104;19;20432;-76
2023/05/08 02:32:57;;;;;;;9.73;8.87;;;;;;;7.41;100.00;96824.88;7396171;19;20385;-76
2023/05/08 02:35:29;;;;;;;9.20;8.33;;;;;;;7.15;100.00;96784.34;7395157;19;20704;-76
2023/05/08 02:37:58;;;;;;;11.53;9.37;;;;;;;7.23;100.00;96813.38;7396407;19;20384;-76
2023/05/08 02:40:28;;;;;;;9.77;8.87;;;;;;;7.38;100.00;96826.25;7393262;19;20499;-76
2023/05/08 02:42:55;;;;;;;9.67;8.83;;;;;;;7.32;100.00;96822.13;7396189;19;20380;-76
2023/05/08 02:45:27;;;;;;;9.80;8.80;;;;;;;7.34;100.00;96830.50;7393099;19;20729;-76
2023/05/08 02:48:10;;;;;;;10.73;9.80;;;;;;;7.07;100.00;96786.59;7396692;19;20404;-76
2023/05/08 02:50:49;;;;;;;9.60;8.70;;;;;;;7.18;100.00;96820.56;7394023;19;20414;-76
2023/05/08 02:53:25;;;;;;;9.10;8.30;;;;;;;7.31;100.00;96830.31;7394090;19;20401;-76
2023/05/08 02:55:56;;;;;;;10.60;9.30;;;;;;;6.52;100.00;96752.34;7396060;19;20389;-76
2023/05/08 02:58:38;;;;;;;10.40;9.53;;;;;;;6.94;100.00;96821.53;7394639;19;20452;-76
2023/05/08 03:01:26;;;;;;;10.77;8.43;;;;;;;7.02;100.00;96809.56;7397360;19;20500;-76
2023/05/08 03:04:14;;;;;;;9.77;8.90;;;;;;;6.85;100.00;96809.34;7395692;19;20381;-76
2023/05/08 03:06:45;;;;;;;10.70;9.67;;;;;;;6.95;100.00;96801.31;7395257;19;20408;-76
2023/05/08 03:09:19;;;;;;;10.00;9.00;;;;;;;7.05;100.00;96808.97;7392793;19;20436;-76
2023/05/08 03:11:50;;;;;;;12.13;11.00;;;;;;;7.00;100.00;96812.50;7395434;19;20916;-76
2023/05/08 03:14:21;;;;;;;11.23;8.97;;;;;;;6.94;100.00;96826.78;7395277;19;20356;-76
2023/05/08 03:16:52;;;;;;;10.00;9.10;;;;;;;6.91;100.00;96811.59;7395800;19;20372;-76
2023/05/08 03:19:30;;;;;;;11.70;10.50;;;;;;;6.98;100.00;96835.66;7394541;19;20450;-76
2023/05/08 03:22:00;;;;;;;12.77;11.40;;;;;;;6.73;100.00;96801.94;7396624;19;20384;-76
2023/05/08 03:24:30;;;;;;;10.80;9.43;;;;;;;6.79;100.00;96821.78;7393857;19;20372;-76
2023/05/08 03:26:58;;;;;;;12.40;11.10;;;;;;;6.76;100.00;96817.13;7396118;19;20364;-76
2023/05/08 03:29:27;;;;;;;11.80;10.60;;;;;;;6.65;100.00;96815.72;7393420;19;20939;-76
2023/05/08 03:31:57;;;;;;;10.73;9.73;;;;;;;6.64;100.00;96806.28;7393341;19;20796;-76
2023/05/08 03:34:24;;;;;;;10.97;9.87;;;;;;;6.46;100.00;96798.19;7396052;19;20359;-76
2023/05/08 03:36:52;;;;;;;11.77;10.57;;;;;;;6.54;100.00;96799.34;7395356;19;20364;-76
2023/05/08 03:39:19;;;;;;;10.00;9.07;;;;;;;6.66;100.00;96812.81;7394871;19;20413;-76
2023/05/08 03:41:46;;;;;;;10.70;9.70;;;;;;;6.67;100.00;96816.22;7394280;19;20909;-76
2023/05/08 03:44:15;;;;;;;11.03;9.93;;;;;;;6.50;100.00;96809.66;7393844;19;20422;-76
2023/05/08 03:46:43;;;;;;;11.43;10.27;;;;;;;6.61;100.00;96836.53;7392879;19;20389;-76
2023/05/08 03:49:11;;;;;;;10.30;9.30;;;;;;;6.49;100.00;96825.72;7393155;19;20416;-76
2023/05/08 03:51:41;;;;;;;12.10;10.90;;;;;;;6.39;100.00;96810.88;7392481;19;20724;-76
2023/05/08 03:54:08;;;;;;;11.80;10.60;;;;;;;6.31;100.00;96805.53;7394468;19;20388;-76
2023/05/08 03:56:35;;;;;;;11.50;10.40;;;;;;;6.44;100.00;96834.47;7394232;19;20382;-76
2023/05/08 03:59:25;;;;;;;14.63;11.20;;;;;;;6.59;100.00;96841.31;7393612;19;20782;-76
2023/05/08 04:02:03;;;;;;;10.90;9.90;;;;;;;6.34;100.00;96815.44;7401238;19;20941;-76
2023/05/08 04:04:54;;;;;;;10.03;9.13;;;;;;;6.47;100.00;96840.97;7400030;19;20386;-76
2023/05/08 04:07:28;;;;;;;11.93;10.53;;;;;;;6.32;100.00;96815.72;7404942;19;20722;-76
2023/05/08 04:10:12;;;;;;;13.10;11.00;;;;;;;6.42;100.00;96841.06;7399925;19;20436;-76
2023/05/08 04:12:53;;;;;;;11.10;10.10;;;;;;;6.33;100.00;96832.25;7402681;19;20436;-76
2023/05/08 04:15:27;;;;;;;12.10;10.90;;;;;;;6.51;100.00;96855.88;7402404;19;20378;-76
2023/05/08 04:17:59;;;;;;;11.80;10.60;;;;;;;6.47;100.00;96846.22;7398457;19;20388;-76
2023/05/08 04:20:29;;;;;;;12.13;10.97;;;;;;;6.35;100.00;96846.66;7400621;19;20428;-76
2023/05/08 04:22:57;;;;;;;12.67;10.83;;;;;;;6.16;100.00;96817.03;7401969;19;20907;-76
2023/05/08 04:25:25;;;;;;;11.47;10.37;;;;;;;6.28;100.00;96827.06;7400626;19;20413;-76
2023/05/08 04:27:54;;;;;;;11.57;10.40;;;;;;;6.28;100.00;96820.00;7401154;19;20377;-76
2023/05/08 04:30:23;;;;;;;12.07;10.67;;;;;;;6.51;100.00;96855.88;7399158;19;20943;-76
2023/05/08 04:32:51;;;;;;;11.23;10.13;;;;;;;6.82;100.00;96860.66;7400225;19;20508;-76
2023/05/08 04:35:18;;;;;;;12.10;10.90;;;;;;;6.76;100.00;96848.66;7398732;19;20401;-76
2023/05/08 04:37:47;;;;;;;11.17;10.13;;;;;;;6.59;100.00;96841.31;7398798;19;20769;-76
2023/05/08 04:40:15;;;;;;;12.33;11.07;;;;;;;6.72;100.00;96866.84;7402498;19;20420;-76
2023/05/08 04:42:45;;;;;;;12.50;11.30;;;;;;;6.63;100.00;96841.50;7400486;19;20421;-76
2023/05/08 04:45:15;;;;;;;11.90;10.60;;;;;;;6.70;100.00;96862.94;7396968;19;20456;-76
2023/05/08 04:47:42;;;;;;;13.10;11.70;;;;;;;6.55;100.00;96848.22;7399884;19;20903;-76
2023/05/08 04:50:10;;;;;;;12.60;11.07;;;;;;;6.66;100.00;96862.72;7396704;19;20421;-76
2023/05/08 04:52:36;;;;;;;12.93;11.63;;;;;;;6.70;100.00;96868.22;7399750;19;20738;-76
2023/05/08 04:55:05;;;;;;;11.90;10.70;;;;;;;6.55;100.00;96842.19;7398467;19;20947;-76
2023/05/08 04:57:34;;;;;;;12.93;11.73;;;;;;;6.76;100.00;96865.19;7399785;19;20759;-76
2023/05/08 05:00:02;;;;;;;12.10;10.90;;;;;;;6.79;100.00;96864.63;7396309;19;20460;-76
2023/05/08 05:02:30;;;;;;;16.63;13.10;;;;;;;6.58;100.00;96826.63;7400359;19;20441;-76
2023/05/08 05:05:00;;;;;;;12.30;11.00;;;;;;;7.06;100.00;96871.00;7397812;19;20924;-76
2023/05/08 05:07:27;;;;;;;12.93;11.63;;;;;;;6.74;100.00;96842.91;7399839;19;20407;-76
2023/05/08 05:09:54;;;;;;;12.90;10.77;;;;;;;6.94;100.00;96858.31;7396822;19;20787;-76
2023/05/08 05:12:21;;;;;;;15.43;13.13;;;;;;;6.71;100.00;96839.00;7397889;19;20402;-75
2023/05/08 05:14:48;;;;;;;12.93;10.53;;;;;;;7.16;100.00;96875.31;7399051;19;20389;-76
2023/05/08 05:17:15;;;;;;;14.40;11.20;;;;;;;7.30;100.00;96881.38;7399910;19;20369;-76
2023/05/08 05:19:42;;;;;;;14.23;11.43;;;;;;;7.28;100.00;96884.28;7396906;19;20500;-75
2023/05/08 05:22:12;;;;;;;13.37;11.70;;;;;;;6.91;100.00;96861.53;7399859;19;20423;-75
2023/05/08 05:24:40;;;;;;;13.17;11.70;;;;;;;7.35;100.00;96860.25;7397721;19;20479;-76
2023/05/08 05:27:07;;;;;;;12.53;11.20;;;;;;;7.45;100.00;96870.56;7396808;19;20371;-76
2023/05/08 05:29:34;;;;;;;17.60;12.27;;;;;;;7.35;100.00;96865.50;7397144;19;20749;-75
2023/05/08 05:32:02;;;;;;;22.40;13.80;;;;;;;7.68;100.00;96872.22;7396787;19;20405;-75
2023/05/08 05:34:29;;;;;;;15.20;11.93;;;;;;;7.75;100.00;96878.97;7397648;19;20738;-76
2023/05/08 05:36:55;;;;;;;12.60;11.33;;;;;;;7.81;100.00;96889.06;7397972;19;20744;-76
2023/05/08 05:39:23;;;;;;;12.70;11.40;;;;;;;7.88;100.00;96865.78;7397012;19;20965;-76
2023/05/08 05:41:50;;;;;;;13.07;11.60;;;;;;;8.06;100.00;96874.63;7397144;19;20397;-75
2023/05/08 05:44:17;;;;;;;12.70;11.40;;;;;;;8.25;100.00;96875.25;7398015;19;20378;-75
2023/05/08 05:46:44;;;;;;;14.73;13.20;;;;;;;7.91;100.00;96870.44;7396690;19;20786;-75
2023/05/08 05:49:11;;;;;;;13.50;12.20;;;;;;;7.84;100.00;96890.34;7397036;19;20435;-74
2023/05/08 05:51:38;;;;;;;12.60;11.30;;;;;;;7.76;100.00;96865.50;7396414;19;20379;-74
2023/05/08 05:54:05;;;;;;;13.47;12.13;;;;;;;7.86;100.00;96882.91;7397938;19;20414;-74
2023/05/08 05:56:33;;;;;;;12.27;10.80;;;;;;;7.85;100.00;96868.97;7395968;19;20401;-75
2023/05/08 05:59:00;;;;;;;14.50;13.03;;;;;;;8.12;100.00;96902.38;7397214;19;20793;-75
2023/05/08 06:01:27;;;;;;;12.73;11.53;;;;;;;8.38;100.00;96907.91;7396442;19;20369;-75
2023/05/08 06:03:55;;;;;;;13.50;12.00;;;;;;;8.08;100.00;96888.25;7398048;19;20399;-75
2023/05/08 06:06:23;;;;;;;15.13;12.50;;;;;;;7.70;100.00;96833.22;7395187;19;20377;-75
2023/05/08 06:08:50;;;;;;;14.37;12.03;;;;;;;8.05;100.00;96888.09;7396999;19;20455;-75
2023/05/08 06:11:17;;;;;;;14.47;12.30;;;;;;;8.25;100.00;96882.38;7396962;19;20398;-75
2023/05/08 06:13:44;;;;;;;12.67;11.37;;;;;;;8.50;100.00;96900.28;7397525;19;20440;-75
2023/05/08 06:16:13;;;;;;;13.40;12.10;;;;;;;8.46;100.00;96872.97;7396149;19;20397;-75
2023/05/08 06:18:40;;;;;;;13.53;12.10;;;;;;;8.34;100.00;96874.53;7397399;19;20419;-75
2023/05/08 06:21:08;;;;;;;14.17;10.60;;;;;;;8.33;100.00;96867.72;7395886;19;20401;-75
2023/05/08 06:23:35;;;;;;;12.27;10.70;;;;;;;8.50;100.00;96868.66;7397221;19;20387;-75
2023/05/08 06:26:02;;;;;;;11.60;10.40;;;;;;;8.24;100.00;96828.91;7394428;19;20379;-75
2023/05/08 06:28:29;;;;;;;11.10;9.90;;;;;;;9.13;100.00;96906.44;7398593;19;20913;-76
2023/05/08 06:30:56;;;;;;;12.43;10.37;;;;;;;9.49;100.00;96893.13;7396382;19;20388;-75
2023/05/08 06:33:23;;;;;;;12.90;11.60;;;;;;;9.75;100.00;96896.63;7397454;19;20925;-75
2023/05/08 06:35:52;;;;;;;11.37;10.10;;;;;;;9.54;100.00;96892.97;7397314;19;20385;-75
2023/05/08 06:38:19;;;;;;;13.90;12.47;;;;;;;9.67;100.00;96886.03;7397140;19;20400;-75
2023/05/08 06:40:48;;;;;;;13.47;11.67;;;;;;;9.85;100.00;96921.97;7395765;19;20415;-75
2023/05/08 06:43:15;;;;;;;11.67;10.57;;;;;;;9.55;100.00;96867.34;7395632;19;20341;-75
2023/05/08 06:45:44;;;;;;;13.00;11.23;;;;;;;9.96;100.00;96890.78;7394667;19;20401;-75
2023/05/08 06:48:11;;;;;;;11.67;10.43;;;;;;;9.63;100.00;96900.94;7395624;19;20903;-75
2023/05/08 06:50:39;;;;;;;11.57;10.47;;;;;;;9.27;100.00;96907.16;7396082;19;20413;-74
2023/05/08 06:53:06;;;;;;;13.37;11.97;;;;;;;9.37;100.00;96912.16;7394561;19;20440;-74
2023/05/08 06:55:33;;;;;;;12.20;11.00;;;;;;;9.18;100.00;96883.34;7395528;19;20742;-74
2023/05/08 06:58:00;;;;;;;14.63;10.50;;;;;;;9.59;100.00;96910.53;7395989;19;20355;-74
2023/05/08 07:00:27;;;;;;;12.40;10.77;;;;;;;9.41;100.00;96885.94;7395465;19;20974;-74
2023/05/08 07:02:54;;;;;;;11.73;10.53;;;;;;;9.64;100.00;96899.84;7394893;19;20400;-74
2023/05/08 07:05:21;;;;;;;11.97;10.77;;;;;;;9.82;100.00;96880.34;7395244;19;20365;-75
2023/05/08 07:07:48;;;;;;;11.47;10.20;;;;;;;10.45;100.00;96899.44;7394095;19;20703;-75
2023/05/08 07:10:18;;;;;;;12.23;10.13;;;;;;;10.51;100.00;96916.69;7394669;19;20457;-75
2023/05/08 07:12:45;;;;;;;10.60;9.60;;;;;;;10.55;100.00;96884.03;7395736;19;20902;-75
2023/05/08 07:15:12;;;;;;;15.50;10.67;;;;;;;11.08;100.00;96896.06;7395729;19;20380;-75
2023/05/08 07:17:52;;;;;;;10.97;9.93;;;;;;;11.51;100.00;96919.81;7394833;19;20384;-74
2023/05/08 07:20:20;;;;;;;10.90;9.90;;;;;;;11.73;100.00;96899.44;7394214;19;20837;-74
2023/05/08 07:22:47;;;;;;;12.30;10.97;;;;;;;11.20;100.00;96922.69;7394889;19;20385;-74
2023/05/08 07:25:14;;;;;;;12.00;10.87;;;;;;;11.10;100.00;96916.97;7397638;19;20401;-75
2023/05/08 07:27:41;;;;;;;14.33;11.50;;;;;;;10.55;100.00;96876.09;7423471;19;20742;-73
2023/05/08 07:30:09;;;;;;;10.93;9.93;;;;;;;10.84;100.00;96901.13;7430259;19;20408;-73
2023/05/08 07:32:37;;;;;;;16.30;10.40;;;;;;;10.89;100.00;96890.38;7429411;19;20475;-73
2023/05/08 07:35:07;;;;;;;12.47;10.70;;;;;;;10.74;100.00;96890.84;7402488;19;20377;-74
2023/05/08 07:37:38;;;;;;;12.50;11.30;;;;;;;11.49;100.00;96926.53;7400532;19;20506;-75
2023/05/08 07:40:05;;;;;;;11.87;10.60;;;;;;;11.30;100.00;96910.22;7398561;19;20429;-75
2023/05/08 07:42:43;;;;;;;11.50;10.40;;;;;;;11.34;100.00;96927.78;7401787;19;21191;-74
2023/05/08 07:45:11;;;;;;;10.90;9.90;;;;;;;11.46;100.00;96924.47;7400173;19;20399;-74
2023/05/08 07:47:54;;;;;;;12.60;11.40;;;;;;;11.04;100.00;96911.03;7402314;19;20452;-75
2023/05/08 07:50:21;;;;;;;10.37;9.37;;;;;;;11.48;100.00;96922.28;7398866;19;20436;-75
2023/05/08 07:52:48;;;;;;;12.57;10.40;;;;;;;11.49;100.00;96884.91;7402474;19;20356;-75
2023/05/08 07:55:17;;;;;;;11.97;10.87;;;;;;;12.09;100.00;96917.53;7401468;19;20400;-75
2023/05/08 07:57:44;;;;;;;11.57;10.53;;;;;;;11.67;100.00;96890.13;7402845;19;20396;-75
2023/05/08 08:00:13;;;;;;;10.90;9.90;;;;;;;11.83;100.00;96909.72;7398779;19;20444;-75
2023/05/08 08:02:41;;;;;;;10.50;9.50;;;;;;;11.83;100.00;96891.94;7402490;19;20356;-74
2023/05/08 08:05:08;;;;;;;9.80;8.90;;;;;;;11.98;100.00;96919.78;7400756;19;20404;-75
2023/05/08 08:07:36;;;;;;;10.03;9.13;;;;;;;12.00;100.00;96908.84;7399554;19;20404;-74
2023/05/08 08:10:03;;;;;;;10.50;9.50;;;;;;;11.78;100.00;96901.94;7398661;19;20460;-75
2023/05/08 08:12:30;;;;;;;9.80;8.90;;;;;;;12.35;100.00;96902.25;7399592;19;20345;-75
2023/05/08 08:14:57;;;;;;;11.47;10.40;;;;;;;12.13;100.00;96883.97;7402167;19;20388;-74
2023/05/08 08:17:24;;;;;;;10.60;9.23;;;;;;;12.27;100.00;96910.25;7399449;19;20353;-75
2023/05/08 08:19:54;;;;;;;16.60;10.03;;;;;;;12.35;100.00;96912.84;7398935;19;20443;-74
2023/05/08 08:22:22;;;;;;;11.23;9.17;;;;;;;12.31;100.00;96890.72;7399504;19;20384;-74
2023/05/08 08:24:49;;;;;;;9.67;8.70;;;;;;;13.17;100.00;96909.66;7400749;19;20368;-75
2023/05/08 08:27:19;;;;;;;9.10;8.30;;;;;;;13.14;100.00;96900.47;7396743;19;20395;-75
2023/05/08 08:29:46;;;;;;;9.97;8.97;;;;;;;13.49;100.00;96927.47;7398810;19;20425;-75
2023/05/08 08:32:13;;;;;;;9.70;8.83;;;;;;;13.80;100.00;96920.84;7400207;19;20353;-75
2023/05/08 08:34:40;;;;;;;9.57;8.67;;;;;;;13.08;100.00;96891.16;7401883;19;20341;-75
2023/05/08 08:37:07;;;;;;;11.70;9.37;;;;;;;13.25;100.00;96908.81;7399049;19;20377;-75
2023/05/08 08:39:34;;;;;;;9.17;8.40;;;;;;;13.42;100.00;96921.91;7399240;19;20453;-74
2023/05/08 08:42:02;;;;;;;9.33;8.43;;;;;;;13.11;100.00;96916.28;7399232;19;20404;-75
2023/05/08 08:44:29;;;;;;;8.50;7.70;;;;;;;13.29;100.00;96918.47;7402014;19;20373;-75
2023/05/08 08:46:58;;;;;;;9.90;9.00;;;;;;;13.34;100.00;96936.06;7395344;19;20448;-74
2023/05/08 08:49:33;;;;;;;8.60;7.80;;;;;;;12.94;100.00;96909.25;7400674;19;20409;-75
2023/05/08 08:52:14;;;;;;;10.37;9.47;;;;;;;13.49;100.00;96932.00;7396532;19;20392;-75
2023/05/08 08:54:45;;;;;;;9.23;8.30;;;;;;;13.80;100.00;96937.56;7401037;19;20430;-74
2023/05/08 08:57:13;;;;;;;9.70;8.80;;;;;;;13.45;100.00;96928.44;7399670;19;20422;-75
2023/05/08 08:59:42;;;;;;;9.13;8.20;;;;;;;13.90;100.00;96929.16;7396968;19;20459;-75
2023/05/08 09:02:13;;;;;;;8.67;7.87;;;;;;;13.96;100.00;96905.78;7399652;19;20352;-75
2023/05/08 09:04:40;;;;;;;9.40;8.60;;;;;;;13.20;100.00;96915.09;7398008;19;20952;-74
2023/05/08 09:07:08;;;;;;;7.20;6.60;;;;;;;13.61;100.00;96914.19;7398044;19;20810;-75
2023/05/08 09:09:39;;;;;;;9.00;8.10;;;;;;;13.34;100.00;96906.06;7396410;19;20751;-75
2023/05/08 09:12:06;;;;;;;9.00;8.10;;;;;;;13.16;100.00;96924.03;7400469;19;20424;-75
2023/05/08 09:14:33;;;;;;;8.87;8.07;;;;;;;13.27;100.00;96907.38;7399529;19;20353;-75
2023/05/08 09:17:01;;;;;;;10.67;9.67;;;;;;;13.21;100.00;96931.81;7401120;19;20769;-75
2023/05/08 09:19:28;;;;;;;7.63;6.93;;;;;;;13.52;100.00;96937.44;7396680;19;20855;-75
2023/05/08 09:21:59;;;;;;;8.37;7.60;;;;;;;13.99;100.00;96936.25;7399639;19;20380;-75
2023/05/08 09:24:56;;;;;;;9.30;8.10;;;;;;;13.60;100.00;96923.25;7397985;19;20405;-75
2023/05/08 09:27:25;;;;;;;7.90;7.20;;;;;;;13.39;100.00;96906.66;7396910;19;20752;-75
2023/05/08 09:30:09;;;;;;;9.07;8.17;;;;;;;13.54;100.00;96913.97;7397344;19;20384;-74
2023/05/08 09:32:38;;;;;;;7.40;6.80;;;;;;;13.80;100.00;96918.19;7399454;19;20362;-75
2023/05/08 09:35:06;;;;;;;8.83;7.97;;;;;;;13.66;100.00;96925.72;7399465;19;20421;-74
2023/05/08 09:37:38;;;;;;;9.07;8.23;;;;;;;14.24;100.00;96934.34;7398116;19;20392;-75
2023/05/08 09:40:14;;;;;;;7.77;7.07;;;;;;;14.16;100.00;96925.41;7395019;19;20411;-75
2023/05/08 09:42:41;;;;;;;10.07;9.17;;;;;;;14.06;100.00;96918.63;7398123;19;20443;-74
2023/05/08 09:45:08;;;;;;;7.03;6.53;;;;;;;14.51;100.00;96906.28;7396853;19;20443;-75
2023/05/08 09:47:39;;;;;;;8.33;7.63;;;;;;;14.18;100.00;96910.66;7395960;19;20892;-74
2023/05/08 09:50:08;;;;;;;7.70;7.00;;;;;;;14.11;100.00;96893.69;7395457;19;20915;-75
2023/05/08 09:52:37;;;;;;;7.50;6.77;;;;;;;13.87;100.00;96921.06;7399353;19;20437;-74
2023/05/08 09:55:06;;;;;;;7.73;7.13;;;;;;;14.25;100.00;96920.72;7396244;19;20720;-74
2023/05/08 09:57:37;;;;;;;8.13;7.43;;;;;;;13.67;100.00;96921.97;7397535;19;20423;-74
2023/05/08 10:00:11;;;;;;;7.07;6.47;;;;;;;13.89;100.00;96908.25;7396306;19;20744;-75
2023/05/08 10:02:41;;;;;;;7.57;6.87;;;;;;;14.13;100.00;96921.50;7400140;19;20368;-75
2023/05/08 10:05:31;;;;;;;8.90;8.20;;;;;;;14.09;100.00;96927.81;7396974;19;20368;-74
2023/05/08 10:08:17;;;;;;;8.03;7.37;;;;;;;13.52;100.00;96910.88;7397832;19;20402;-75
2023/05/08 10:10:44;;;;;;;7.80;6.53;;;;;;;14.30;100.00;96917.06;7399965;19;20746;-75
2023/05/08 10:13:12;;;;;;;8.53;7.73;;;;;;;14.37;100.00;96926.00;7398125;19;20349;-75
2023/05/08 10:15:43;;;;;;;7.53;6.83;;;;;;;14.01;100.00;96902.88;7394843;19;20388;-75
2023/05/08 10:18:10;;;;;;;7.67;7.03;;;;;;;14.70;100.00;96928.53;7397421;19;20405;-74
2023/05/08 10:20:40;;;;;;;8.03;7.40;;;;;;;14.36;100.00;96889.88;7395268;19;20373;-74
2023/05/08 10:23:10;;;;;;;7.50;6.90;;;;;;;14.42;100.00;96928.47;7397969;19;20401;-75
2023/05/08 10:25:50;;;;;;;7.63;7.00;;;;;;;14.14;100.00;96923.03;7394976;19;20383;-75
2023/05/08 10:28:47;;;;;;;7.57;6.87;;;;;;;14.13;100.00;96899.44;7397241;19;20381;-74
2023/05/08 10:31:16;;;;;;;8.43;7.60;;;;;;;14.40;100.00;96885.44;7398390;19;20362;-74
2023/05/08 10:33:49;;;;;;;7.87;7.10;;;;;;;14.45;100.00;96917.16;7396252;19;20353;-74
2023/05/08 10:36:16;;;;;;;8.77;7.90;;;;;;;14.17;100.00;96895.03;7396642;19;20483;-75
2023/05/08 10:38:43;;;;;;;7.73;7.13;;;;;;;14.45;100.00;96908.41;7394321;19;20424;-74
2023/05/08 10:41:11;;;;;;;7.50;6.60;;;;;;;14.73;100.00;96914.53;7396684;19;20351;-75
2023/05/08 10:43:41;;;;;;;8.87;8.07;;;;;;;14.84;100.00;96914.84;7394968;19;20400;-75
2023/05/08 10:46:29;;;;;;;8.50;7.37;;;;;;;14.31;100.00;96919.38;7396161;19;20352;-74
2023/05/08 10:49:10;;;;;;;7.10;6.50;;;;;;;14.38;100.00;96900.19;7395298;19;20428;-74
2023/05/08 10:52:06;;;;;;;7.70;7.10;;;;;;;15.02;100.00;96918.75;7395040;19;20408;-75
2023/05/08 10:54:52;;;;;;;7.87;7.17;;;;;;;15.00;100.00;96920.97;7397010;19;20897;-75
2023/05/08 10:57:19;;;;;;;6.70;6.20;;;;;;;15.31;100.00;96906.16;7396618;19;20467;-74
2023/05/08 10:59:46;;;;;;;6.77;6.17;;;;;;;14.86;100.00;96899.28;7394872;19;20412;-74
2023/05/08 11:02:14;;;;;;;8.40;7.80;;;;;;;14.58;100.00;96915.25;7396461;19;20440;-74
2023/05/08 11:04:42;;;;;;;8.90;7.53;;;;;;;14.90;100.00;96916.13;7394250;19;20368;-75
2023/05/08 11:07:10;;;;;;;9.07;8.17;;;;;;;14.78;100.00;96898.31;7394688;19;20384;-74
2023/05/08 11:09:40;;;;;;;10.47;8.20;;;;;;;15.37;100.00;96910.13;7392635;19;20746;-75
2023/05/08 11:12:15;;;;;;;8.40;7.70;;;;;;;15.81;100.00;96902.84;7396270;19;20387;-75
2023/05/08 11:14:52;;;;;;;8.30;7.60;;;;;;;15.35;100.00;96894.47;7395505;19;20383;-75
2023/05/08 11:17:23;;;;;;;7.33;6.63;;;;;;;15.28;100.00;96907.63;7393438;19;20945;-75
2023/05/08 11:19:56;;;;;;;7.83;7.17;;;;;;;15.30;100.00;96910.72;7394214;19;20790;-74
2023/05/08 11:22:25;;;;;;;6.83;6.23;;;;;;;15.16;100.00;96909.56;7393799;19;20372;-75
2023/05/08 11:24:55;;;;;;;6.80;6.10;;;;;;;15.01;100.00;96914.53;7395070;19;20358;-74
2023/05/08 11:27:35;;;;;;;5.00;4.60;;;;;;;14.83;100.00;96873.34;7394272;19;20485;-75
2023/05/08 11:30:17;;;;;;;6.77;5.53;;;;;;;14.87;100.00;96922.13;7393964;19;21001;-74
2023/05/08 11:33:02;;;;;;;5.63;5.07;;;;;;;15.06;100.00;96919.59;7394686;19;20376;-74
2023/05/08 11:35:47;;;;;;;6.00;4.80;;;;;;;14.83;100.00;96921.28;7393494;19;20390;-74
2023/05/08 11:38:20;;;;;;;7.63;6.97;;;;;;;15.46;100.00;96916.06;7395870;19;20384;-75
2023/05/08 11:40:57;;;;;;;8.30;7.50;;;;;;;15.94;100.00;96914.97;7397310;19;20371;-75